Time;durP1;ratioP1;P1;durP2;ratioP2;P2;SDS_P1;SDS_P2;PMS_P1;PMS_P2;Temp;Humidity;BMP_temperature;BMP_pressure;BME280_temperature;BME280_humidity;BME280_pressure;Samples;Min_cycle;Max_cycle;Signal;HPM_P1;HPM_P2
2022/12/03 00:00:35;;;;;;;;;18.40;15.00;;;;;8.64;52.82;100005.03;5072379;28;8861;-76
2022/12/03 00:03:20;;;;;;;;;15.80;14.60;;;;;8.57;53.22;100009.25;5090869;28;8829;-78
2022/12/03 00:05:48;;;;;;;;;16.40;14.80;;;;;8.66;53.40;100008.53;5090275;28;8843;-77
2022/12/03 00:08:17;;;;;;;;;18.20;15.20;;;;;8.75;52.95;100013.84;5090825;28;9640;-76
2022/12/03 00:10:47;;;;;;;;;16.80;13.20;;;;;8.78;53.30;100023.41;5054145;28;8871;-78
2022/12/03 00:13:16;;;;;;;;;21.40;17.60;;;;;8.76;52.89;100019.94;5090666;28;8925;-77
2022/12/03 00:15:44;;;;;;;;;13.80;13.80;;;;;8.62;53.13;100021.44;5089164;28;9637;-76
2022/12/03 00:18:13;;;;;;;;;18.00;16.20;;;;;8.65;53.50;100019.75;5083510;28;8939;-78
2022/12/03 00:20:42;;;;;;;;;18.00;15.40;;;;;8.59;53.49;100010.16;5069507;28;8880;-76
2022/12/03 00:23:11;;;;;;;;;20.00;17.60;;;;;8.54;53.38;100008.31;5018454;28;8970;-77
2022/12/03 00:25:39;;;;;;;;;20.40;18.60;;;;;8.49;53.91;100010.00;5057351;28;8944;-77
2022/12/03 00:28:09;;;;;;;;;6.20;6.20;;;;;8.57;53.80;100013.59;5102750;28;8847;-79
2022/12/03 00:30:38;;;;;;;;;20.60;18.60;;;;;8.66;52.96;100011.13;5099363;28;8852;-78
2022/12/03 00:33:07;;;;;;;;;21.40;20.80;;;;;8.68;53.54;100008.56;5089053;28;9054;-77
2022/12/03 00:35:36;;;;;;;;;13.60;13.20;;;;;8.79;52.55;100017.38;5072474;28;8908;-77
2022/12/03 00:38:04;;;;;;;;;19.60;18.60;;;;;8.91;52.51;100017.53;5070362;28;8878;-77
2022/12/03 00:40:33;;;;;;;;;21.00;17.20;;;;;8.78;52.62;100018.22;5055102;28;8854;-77
2022/12/03 00:43:02;;;;;;;;;19.00;16.80;;;;;8.81;52.50;100023.47;5053210;28;8909;-76
2022/12/03 00:45:32;;;;;;;;;15.60;15.00;;;;;8.70;52.76;100025.03;5067234;28;10105;-77
2022/12/03 00:48:01;;;;;;;;;19.20;18.40;;;;;8.70;52.71;100017.25;5083478;28;8868;-77
2022/12/03 00:50:29;;;;;;;;;14.20;13.80;;;;;8.67;53.04;100014.59;5066532;28;9609;-77
2022/12/03 00:52:58;;;;;;;;;17.80;17.40;;;;;8.71;52.14;100011.19;4992445;28;8875;-76
2022/12/03 00:55:27;;;;;;;;;19.80;16.00;;;;;8.69;52.89;100011.16;5010236;28;8897;-77
2022/12/03 00:57:55;;;;;;;;;15.00;14.40;;;;;8.64;52.72;100018.03;5026559;28;8863;-76
2022/12/03 01:00:24;;;;;;;;;18.20;17.40;;;;;8.45;53.52;100026.38;4998734;28;8841;-77
2022/12/03 01:02:54;;;;;;;;;19.20;15.60;;;;;8.30;54.23;100017.47;5046107;28;8898;-77
2022/12/03 01:05:23;;;;;;;;;13.20;11.80;;;;;8.33;54.11;100008.84;5029694;28;8876;-77
2022/12/03 01:07:51;;;;;;;;;17.80;14.60;;;;;8.32;53.99;100007.09;5046408;28;8922;-77
2022/12/03 01:10:21;;;;;;;;;13.00;11.40;;;;;8.17;54.78;100005.13;5019593;28;8831;-76
2022/12/03 01:12:50;;;;;;;;;22.40;19.20;;;;;8.25;54.56;100002.66;5064609;28;8882;-76
2022/12/03 01:15:18;;;;;;;;;18.80;16.40;;;;;8.02;55.02;100000.53;5066721;28;8883;-77
2022/12/03 01:17:47;;;;;;;;;18.60;15.00;;;;;8.23;54.39;100005.22;5060975;28;8843;-78
2022/12/03 01:20:17;;;;;;;;;16.40;15.60;;;;;8.14;54.50;100005.06;5024785;28;8864;-75
2022/12/03 01:22:46;;;;;;;;;19.80;17.60;;;;;8.36;53.77;100001.09;5077929;28;8852;-77
2022/12/03 01:25:15;;;;;;;;;22.00;20.40;;;;;8.12;54.71;100010.22;5074834;28;8886;-76
2022/12/03 01:27:43;;;;;;;;;17.80;17.00;;;;;7.77;56.67;100010.50;5066455;28;8861;-75
2022/12/03 01:30:13;;;;;;;;;15.00;14.60;;;;;7.97;55.02;100003.03;5046078;28;8827;-77
2022/12/03 01:32:41;;;;;;;;;19.20;15.00;;;;;7.94;55.59;100002.13;4996495;28;8985;-78
2022/12/03 01:35:09;;;;;;;;;18.60;15.80;;;;;7.99;55.35;100006.53;5019090;28;8838;-76
2022/12/03 01:37:39;;;;;;;;;15.40;15.40;;;;;8.03;55.79;100006.59;5049401;28;8845;-77
2022/12/03 01:40:12;;;;;;;;;20.40;19.60;;;;;7.92;56.14;100014.19;5065853;28;8821;-76
2022/12/03 01:42:42;;;;;;;;;16.40;16.20;;;;;8.10;55.78;100017.13;5009480;28;8862;-77
2022/12/03 01:45:13;;;;;;;;;17.20;15.80;;;;;8.02;54.99;100010.94;5025750;28;8842;-76
2022/12/03 01:47:42;;;;;;;;;22.00;19.20;;;;;8.24;55.14;100012.19;4977489;28;9561;-76
2022/12/03 01:50:18;;;;;;;;;21.20;17.40;;;;;8.22;54.66;100011.25;5009354;28;8976;-76
2022/12/03 01:52:48;;;;;;;;;17.00;16.20;;;;;8.33;54.23;100007.09;5008154;28;8956;-75
2022/12/03 01:55:21;;;;;;;;;20.20;19.40;;;;;8.43;54.06;100003.00;5025690;28;8861;-76
2022/12/03 01:57:53;;;;;;;;;25.80;19.60;;;;;8.42;54.56;100003.81;5010296;28;8869;-76
2022/12/03 02:00:23;;;;;;;;;20.00;19.60;;;;;8.49;54.29;99999.59;5045269;28;8964;-76
2022/12/03 02:02:54;;;;;;;;;21.00;20.40;;;;;8.54;53.85;99996.22;4996246;28;9008;-76
2022/12/03 02:05:26;;;;;;;;;22.20;18.60;;;;;8.54;54.04;100001.44;5029143;28;8914;-76
2022/12/03 02:07:57;;;;;;;;;21.80;20.20;;;;;8.49;53.82;99997.88;5059048;28;8864;-75
2022/12/03 02:10:28;;;;;;;;;23.00;20.40;;;;;8.48;54.05;100003.03;5049815;28;8847;-77
2022/12/03 02:13:00;;;;;;;;;20.20;19.20;;;;;8.48;54.38;100009.09;5069144;28;8886;-76
2022/12/03 02:15:29;;;;;;;;;21.40;21.20;;;;;8.26;54.78;100002.69;5059820;28;8852;-75
2022/12/03 02:17:58;;;;;;;;;1.80;1.20;;;;;8.13;55.32;100006.78;5026028;28;8858;-74
2022/12/03 02:20:27;;;;;;;;;23.40;21.40;;;;;8.26;55.30;100012.19;5085897;28;8863;-76
2022/12/03 02:23:05;;;;;;;;;18.80;16.60;;;;;8.28;54.65;100008.78;5086342;28;8848;-76
2022/12/03 02:25:36;;;;;;;;;18.60;16.20;;;;;8.28;54.74;100020.88;5068737;28;8846;-75
2022/12/03 02:28:08;;;;;;;;;21.00;19.40;;;;;8.28;54.86;100028.66;5085472;28;8865;-76
2022/12/03 02:30:37;;;;;;;;;25.20;22.40;;;;;8.37;54.46;100015.81;5101865;28;8866;-76
2022/12/03 02:33:06;;;;;;;;;22.40;19.20;;;;;8.29;55.12;100023.50;5028427;28;9623;-76
2022/12/03 02:35:36;;;;;;;;;20.80;18.20;;;;;8.20;55.62;100024.25;5028299;28;8866;-77
2022/12/03 02:38:17;;;;;;;;;18.20;18.20;;;;;8.13;56.25;100024.97;5045079;28;8900;-77
2022/12/03 02:40:49;;;;;;;;;25.40;21.20;;;;;8.23;55.59;100012.16;5044918;28;9645;-76
2022/12/03 02:43:19;;;;;;;;;21.40;18.60;;;;;8.23;54.97;100009.56;5064211;28;8952;-75
2022/12/03 02:45:51;;;;;;;;;20.20;18.40;;;;;8.31;54.79;100015.72;5031625;28;8870;-76
2022/12/03 02:48:24;;;;;;;;;26.40;22.00;;;;;8.17;55.57;100011.19;5064765;28;8863;-76
2022/12/03 02:50:55;;;;;;;;;21.20;21.20;;;;;8.34;55.07;100006.28;5048347;28;9637;-77
2022/12/03 02:53:29;;;;;;;;;20.40;15.60;;;;;8.29;54.68;100014.84;5064796;28;8832;-75
2022/12/03 02:56:01;;;;;;;;;17.00;14.40;;;;;8.27;55.46;100012.22;5064963;28;8855;-76
2022/12/03 02:58:32;;;;;;;;;14.60;11.20;;;;;8.19;55.22;100000.81;5063753;28;8898;-76
2022/12/03 03:01:03;;;;;;;;;19.60;18.40;;;;;8.29;54.83;99997.50;5048613;28;8852;-75
2022/12/03 03:03:33;;;;;;;;;22.00;19.20;;;;;8.28;54.77;99993.19;5087521;28;8840;-75
2022/12/03 03:06:03;;;;;;;;;17.80;17.00;;;;;8.38;54.19;99989.88;5087948;28;8856;-76
2022/12/03 03:08:32;;;;;;;;;16.20;16.20;;;;;7.97;55.88;99986.59;5079135;28;8864;-74
2022/12/03 03:11:02;;;;;;;;;19.40;16.60;;;;;8.06;55.91;99988.50;5093734;28;9587;-75
2022/12/03 03:13:33;;;;;;;;;18.20;17.20;;;;;8.11;55.86;99992.91;5070037;28;9391;-76
2022/12/03 03:16:02;;;;;;;;;15.20;14.40;;;;;7.88;56.48;99989.94;5035981;28;8914;-78
2022/12/03 03:18:31;;;;;;;;;22.20;19.60;;;;;7.93;56.27;100002.97;5086328;28;8882;-75
2022/12/03 03:21:00;;;;;;;;;17.40;16.60;;;;;7.79;56.02;99987.16;5086547;28;8843;-75
2022/12/03 03:23:29;;;;;;;;;15.40;14.20;;;;;7.86;55.94;99985.53;5087707;28;8886;-76
2022/12/03 03:26:01;;;;;;;;;15.40;15.40;;;;;7.65;57.07;99981.72;5088844;28;8887;-76
2022/12/03 03:28:34;;;;;;;;;17.80;15.40;;;;;7.89;56.66;99988.19;5090603;28;8924;-76
2022/12/03 03:31:05;;;;;;;;;16.80;15.80;;;;;7.64;57.46;99989.47;5091177;28;8871;-76
2022/12/03 03:33:34;;;;;;;;;17.40;17.20;;;;;7.85;56.05;99995.06;5091008;28;9028;-76
2022/12/03 03:36:02;;;;;;;;;18.20;15.00;;;;;8.06;55.84;99993.69;5091045;28;8874;-76
2022/12/03 03:38:32;;;;;;;;;14.40;13.00;;;;;7.97;55.61;99984.88;5089885;28;8898;-75
2022/12/03 03:41:03;;;;;;;;;15.40;13.60;;;;;7.99;55.96;99984.91;5091219;28;8840;-76
2022/12/03 03:43:34;;;;;;;;;15.60;14.20;;;;;8.03;56.21;99980.63;5123669;27;8847;-77
2022/12/03 03:46:04;;;;;;;;;17.40;14.80;;;;;8.06;56.25;99980.69;5090026;28;8861;-74
2022/12/03 03:48:34;;;;;;;;;12.20;10.80;;;;;8.15;55.41;99986.03;5123323;27;8868;-76
2022/12/03 03:51:07;;;;;;;;;13.40;10.40;;;;;8.10;54.89;99980.75;5088485;28;8843;-76
2022/12/03 03:53:38;;;;;;;;;16.40;14.80;;;;;8.09;55.87;99997.22;5091095;28;8863;-76
2022/12/03 03:56:08;;;;;;;;;18.00;17.60;;;;;8.26;54.58;99984.50;5073597;28;8863;-77
2022/12/03 03:58:39;;;;;;;;;20.00;17.80;;;;;8.14;54.90;99995.53;5070571;28;8866;-76
2022/12/03 04:01:08;;;;;;;;;12.80;11.40;;;;;8.17;54.82;99994.75;5080796;28;8880;-77
2022/12/03 04:03:37;;;;;;;;;16.40;14.60;;;;;8.10;55.43;99996.34;5102342;28;8863;-76
2022/12/03 04:06:06;;;;;;;;;13.80;13.00;;;;;8.22;54.59;100000.84;5074409;28;8879;-78
2022/12/03 04:08:35;;;;;;;;;15.20;14.20;;;;;8.21;54.50;99999.13;5089044;28;10101;-75
2022/12/03 04:13:51;;;;;;;;;13.80;13.20;;;;;8.38;53.90;100002.00;5053677;28;8890;-76
2022/12/03 04:16:20;;;;;;;;;15.00;14.40;;;;;8.15;54.73;100001.63;5089007;28;8895;-77
2022/12/03 04:18:49;;;;;;;;;14.80;13.80;;;;;8.40;54.59;99995.09;5087509;28;8859;-74
2022/12/03 04:24:07;;;;;;;;;11.00;10.40;;;;;8.26;54.66;99996.59;5070984;28;8854;-77
2022/12/03 04:29:24;;;;;;;;;20.40;18.60;;;;;8.29;54.44;100002.72;5088500;28;8844;-77
2022/12/03 04:37:25;;;;;;;;;10.20;10.20;;;;;8.26;54.57;100007.88;5084050;28;8951;-79
2022/12/03 04:39:54;;;;;;;;;11.00;10.60;;;;;8.24;55.16;100001.78;5088432;28;8848;-77
2022/12/03 04:42:23;;;;;;;;;8.40;7.40;;;;;8.27;54.36;99995.75;5088942;28;8956;-75
2022/12/03 04:44:53;;;;;;;;;18.00;18.00;;;;;8.32;54.58;99991.50;5121165;27;8866;-78
2022/12/03 04:47:22;;;;;;;;;17.40;17.40;;;;;8.27;54.66;100006.16;5070417;28;8866;-75
2022/12/03 04:49:51;;;;;;;;;14.40;13.00;;;;;7.93;55.35;100005.56;5088940;28;8863;-77
2022/12/03 04:52:21;;;;;;;;;15.80;14.60;;;;;7.88;55.82;100009.81;5088184;28;8913;-76
2022/12/03 04:54:49;;;;;;;;;12.80;10.80;;;;;7.58;57.27;100009.28;5099645;28;8873;-79
2022/12/03 04:57:18;;;;;;;;;40.50;38.25;;;;;7.50;57.28;100022.94;5066597;28;9562;-77
2022/12/03 04:59:47;;;;;;;;;17.80;16.80;;;;;7.52;57.15;100010.88;5074111;28;8854;-77
2022/12/03 05:02:17;;;;;;;;;18.20;12.60;;;;;7.76;56.45;100018.25;5121896;27;8921;-79
2022/12/03 05:04:46;;;;;;;;;16.80;13.80;;;;;7.77;56.50;100026.06;5033907;28;8854;-79
2022/12/03 05:07:14;;;;;;;;;15.00;12.20;;;;;7.15;58.34;100023.13;5086771;28;8851;-77
2022/12/03 05:09:43;;;;;;;;;18.00;17.00;;;;;6.81;59.59;100015.47;5069829;28;8835;-76
2022/12/03 05:12:12;;;;;;;;;15.60;13.60;;;;;7.25;58.25;100019.00;5087894;28;8860;-76
2022/12/03 05:14:40;;;;;;;;;10.40;10.40;;;;;7.52;57.56;100016.06;5069090;28;8836;-78
2022/12/03 05:17:09;;;;;;;;;37.25;32.25;;;;;7.34;58.19;100014.88;5084761;28;8858;-76
2022/12/03 05:22:21;;;;;;;;;19.20;16.60;;;;;7.61;56.12;100016.25;4949927;28;8856;-76
2022/12/03 05:24:50;;;;;;;;;15.20;14.00;;;;;7.66;56.35;100016.34;4936535;28;8864;-75
2022/12/03 05:27:20;;;;;;;;;10.00;10.00;;;;;7.67;55.88;100011.16;4966284;28;8852;-77
2022/12/03 05:29:52;;;;;;;;;13.80;13.20;;;;;7.71;56.30;100010.41;4955504;28;8989;-78
2022/12/03 05:32:20;;;;;;;;;21.00;19.40;;;;;7.17;58.17;100016.25;4969035;28;9635;-77
2022/12/03 05:34:51;;;;;;;;;13.00;11.80;;;;;7.34;57.66;100014.00;4950196;28;8891;-75
2022/12/03 05:37:20;;;;;;;;;15.00;12.20;;;;;7.54;57.55;100022.16;4953024;28;8876;-77
2022/12/03 05:39:49;;;;;;;;;18.80;17.00;;;;;7.45;58.00;100019.38;4951388;28;8836;-78
2022/12/03 05:45:04;;;;;;;;;15.80;14.00;;;;;7.39;57.37;100034.00;4969156;28;9594;-75
2022/12/03 05:47:33;;;;;;;;;12.80;12.80;;;;;7.24;58.01;100033.69;4954201;28;8868;-78
2022/12/03 05:50:03;;;;;;;;;13.20;9.80;;;;;7.60;57.50;100036.13;4972465;28;8852;-78
2022/12/03 05:52:32;;;;;;;;;14.80;14.00;;;;;7.70;56.82;100032.00;4982774;28;8858;-77
2022/12/03 05:55:00;;;;;;;;;17.20;16.00;;;;;7.54;57.04;100032.53;4987951;28;8898;-76
2022/12/03 05:57:29;;;;;;;;;24.00;21.00;;;;;6.85;59.52;100044.94;4988653;28;8872;-75
2022/12/03 05:59:58;;;;;;;;;14.80;14.20;;;;;6.77;60.43;100038.72;5042986;28;9009;-75
2022/12/03 06:02:26;;;;;;;;;14.00;14.00;;;;;6.50;61.50;100042.38;5086050;28;8886;-76
2022/12/03 06:04:55;;;;;;;;;17.60;16.80;;;;;6.10;62.59;100048.31;5051582;28;8842;-76
2022/12/03 06:07:25;;;;;;;;;12.00;12.00;;;;;6.04;63.15;100042.13;5050164;28;8846;-76
2022/12/03 06:09:54;;;;;;;;;13.40;11.20;;;;;6.64;61.08;100045.31;5068030;28;9628;-77
2022/12/03 06:12:23;;;;;;;;;16.20;13.80;;;;;6.59;61.36;100041.75;5079784;28;8859;-77
2022/12/03 06:14:53;;;;;;;;;16.00;14.00;;;;;7.00;59.62;100049.59;5088278;28;8852;-77
2022/12/03 06:17:22;;;;;;;;;9.40;8.80;;;;;6.99;59.14;100042.66;5088037;28;8874;-76
2022/12/03 06:19:51;;;;;;;;;20.00;17.80;;;;;6.98;59.85;100043.50;5035352;28;9686;-77
2022/12/03 06:22:20;;;;;;;;;13.80;13.80;;;;;6.94;59.79;100044.28;5077622;28;8864;-77
2022/12/03 06:24:50;;;;;;;;;11.60;11.60;;;;;7.27;58.86;100044.09;5067586;28;8850;-73
2022/12/03 06:27:19;;;;;;;;;13.20;12.40;;;;;7.49;58.60;100042.84;5072464;28;8942;-70
2022/12/03 06:29:47;;;;;;;;;11.60;11.60;;;;;7.66;57.47;100043.16;5087266;28;9704;-69
2022/12/03 06:32:16;;;;;;;;;13.20;11.40;;;;;7.66;57.68;100043.16;5079690;28;8831;-78
2022/12/03 06:34:45;;;;;;;;;16.60;13.40;;;;;7.89;57.29;100043.59;5066685;28;8842;-79
2022/12/03 06:37:13;;;;;;;;;10.40;8.40;;;;;7.86;57.42;100050.44;5088159;28;9664;-80
2022/12/03 06:39:42;;;;;;;;;15.60;15.40;;;;;7.78;57.03;100042.53;5071662;28;9502;-77
2022/12/03 06:42:12;;;;;;;;;27.60;25.60;;;;;7.94;56.85;100046.25;5092549;28;8893;-74
2022/12/03 06:44:41;;;;;;;;;14.20;14.00;;;;;8.15;56.71;100038.88;5094524;28;8844;-78
2022/12/03 06:47:09;;;;;;;;;27.20;25.40;;;;;7.86;57.50;100038.34;5090536;28;8844;-77
2022/12/03 06:49:38;;;;;;;;;17.80;15.80;;;;;8.28;56.58;100036.47;5052883;28;8885;-78
2022/12/03 06:52:07;;;;;;;;;19.20;15.60;;;;;7.98;57.30;100035.97;5087046;28;8863;-78
2022/12/03 06:54:35;;;;;;;;;17.40;16.60;;;;;7.88;57.83;100039.25;5120734;28;9675;-77
2022/12/03 06:57:04;;;;;;;;;14.40;14.40;;;;;8.27;56.59;100040.78;5087808;28;8878;-77
2022/12/03 06:59:36;;;;;;;;;19.20;19.20;;;;;8.12;56.82;100036.19;5086249;28;8982;-77
2022/12/03 07:02:05;;;;;;;;;18.80;17.80;;;;;8.07;57.40;100037.88;5078822;28;8957;-77
2022/12/03 07:04:33;;;;;;;;;22.40;20.00;;;;;8.11;57.20;100042.25;5070683;28;8862;-77
2022/12/03 07:07:02;;;;;;;;;24.40;20.20;;;;;7.99;58.54;100044.63;5069981;28;8880;-77
2022/12/03 07:09:31;;;;;;;;;17.40;17.00;;;;;8.32;57.41;100043.47;5068019;28;9015;-80
2022/12/03 07:11:59;;;;;;;;;20.80;18.00;;;;;8.56;56.58;100043.91;5068312;28;8868;-79
2022/12/03 07:14:28;;;;;;;;;18.40;16.60;;;;;8.87;55.81;100033.09;5068408;28;9641;-77
2022/12/03 07:16:58;;;;;;;;;20.80;18.00;;;;;8.94;55.35;100045.31;5068191;28;8882;-77
2022/12/03 07:19:26;;;;;;;;;19.20;16.60;;;;;9.08;55.12;100051.59;5084317;28;8864;-77
2022/12/03 07:22:00;;;;;;;;;20.20;18.20;;;;;8.83;55.32;100047.78;5053028;28;8863;-76
2022/12/03 07:24:29;;;;;;;;;26.20;25.20;;;;;8.84;55.50;100046.03;5091874;28;8852;-80
2022/12/03 07:26:57;;;;;;;;;24.20;23.40;;;;;8.64;56.48;100069.13;5052912;28;9058;-79
2022/12/03 07:29:26;;;;;;;;;24.60;19.80;;;;;7.94;58.97;100070.53;5054084;28;8856;-77
2022/12/03 07:31:54;;;;;;;;;30.80;24.40;;;;;8.37;57.84;100054.81;5087487;28;8870;-78
2022/12/03 07:34:25;;;;;;;;;25.00;22.80;;;;;8.81;57.37;100051.19;5039385;28;8863;-77
2022/12/03 07:36:53;;;;;;;;;18.40;16.80;;;;;8.93;56.74;100052.25;5082770;28;8978;-76
2022/12/03 07:39:22;;;;;;;;;17.20;16.20;;;;;9.28;55.40;100046.66;5096167;28;8884;-78
2022/12/03 07:41:51;;;;;;;;;24.60;23.40;;;;;9.32;55.10;100043.22;5079759;28;8899;-79
2022/12/03 07:44:20;;;;;;;;;18.60;18.60;;;;;9.40;54.99;100042.47;5089875;28;8863;-78
2022/12/03 07:46:48;;;;;;;;;24.20;23.00;;;;;9.70;54.12;100048.00;5091248;28;8858;-78
2022/12/03 07:49:17;;;;;;;;;22.00;19.00;;;;;9.89;53.61;100043.00;5062195;28;8889;-76
2022/12/03 07:51:52;;;;;;;;;19.20;19.20;;;;;9.90;54.05;100047.34;5054035;28;9003;-76
2022/12/03 07:54:21;;;;;;;;;15.00;14.00;;;;;9.91;53.82;100041.28;5034939;28;8854;-77
2022/12/03 07:56:50;;;;;;;;;24.20;23.60;;;;;9.08;56.63;100051.59;5070398;28;8842;-75
2022/12/03 07:59:24;;;;;;;;;31.80;29.20;;;;;9.13;56.53;100038.63;5085344;28;8847;-77
2022/12/03 08:01:52;;;;;;;;;31.60;28.80;;;;;8.87;57.88;100046.09;5083001;28;8859;-77
2022/12/03 08:04:21;;;;;;;;;32.40;28.80;;;;;9.15;57.37;100039.56;5045853;28;8941;-77
2022/12/03 08:06:51;;;;;;;;;26.80;25.60;;;;;9.26;56.83;100039.66;5054053;28;8971;-76
2022/12/03 08:09:20;;;;;;;;;24.60;24.60;;;;;9.56;55.87;100044.38;5079905;28;8830;-76
2022/12/03 08:11:49;;;;;;;;;26.60;23.20;;;;;9.77;55.87;100043.72;5100656;27;8877;-78
2022/12/03 08:14:20;;;;;;;;;32.60;26.00;;;;;10.07;54.77;100042.28;5094464;28;8839;-77
2022/12/03 08:16:48;;;;;;;;;29.00;25.60;;;;;10.11;54.25;100034.53;5087680;28;9625;-77
2022/12/03 08:19:18;;;;;;;;;30.40;27.40;;;;;10.20;53.90;100036.34;5068420;28;8862;-77
2022/12/03 08:21:46;;;;;;;;;25.20;25.20;;;;;10.10;54.27;100039.72;5082207;28;8854;-77
2022/12/03 08:24:18;;;;;;;;;30.40;29.80;;;;;9.93;55.35;100040.44;5071448;28;8862;-77
2022/12/03 08:26:49;;;;;;;;;27.20;24.00;;;;;10.04;55.37;100043.16;5090999;28;8962;-77
2022/12/03 08:29:19;;;;;;;;;33.00;29.00;;;;;10.40;54.88;100039.16;5090664;28;8829;-78
2022/12/03 08:31:50;;;;;;;;;22.00;21.60;;;;;10.47;53.96;100034.84;5106412;28;8856;-79
2022/12/03 08:34:21;;;;;;;;;31.40;31.00;;;;;10.26;55.01;100035.53;5102530;28;8845;-81
2022/12/03 08:36:52;;;;;;;;;32.40;29.00;;;;;10.62;54.73;100040.19;5039312;28;9614;-79
2022/12/03 08:39:29;;;;;;;;;31.20;28.80;;;;;10.75;54.38;100035.94;5058830;28;8914;-78
2022/12/03 08:44:55;;;;;;;;;26.40;23.80;;;;;11.22;53.27;100045.75;5025850;28;8890;-80
2022/12/03 08:47:25;;;;;;;;;25.40;23.80;;;;;11.25;53.32;100048.41;5050243;28;8948;-77
2022/12/03 08:49:56;;;;;;;;;29.00;26.60;;;;;11.28;52.44;100045.78;5033626;28;8840;-79
2022/12/03 08:52:32;;;;;;;;;29.00;26.60;;;;;11.66;52.04;100055.53;5049977;28;8902;-79
2022/12/03 08:55:31;;;;;;;;;29.20;27.20;;;;;11.89;51.73;100049.50;5049884;28;8848;-78
2022/12/03 08:58:00;;;;;;;;;15.20;15.20;;;;;11.75;51.97;100056.44;5032229;28;9653;-77
2022/12/03 09:00:29;;;;;;;;;30.60;26.40;;;;;12.01;50.55;100060.00;5034421;28;8970;-78
2022/12/03 09:03:00;;;;;;;;;23.20;20.60;;;;;11.77;51.85;100063.38;5030900;28;8864;-80
2022/12/03 09:05:32;;;;;;;;;28.00;25.40;;;;;11.89;52.05;100055.63;5047326;28;9718;-79
2022/12/03 09:08:00;;;;;;;;;24.00;15.60;;;;;12.08;51.25;100053.91;5034225;28;8860;-80
2022/12/03 09:10:31;;;;;;;;;24.60;22.40;;;;;12.04;50.75;100054.78;5048162;28;8975;-79
2022/12/03 09:12:59;;;;;;;;;28.40;26.40;;;;;12.17;50.33;100044.34;5063427;28;8995;-79
2022/12/03 09:15:28;;;;;;;;;21.20;19.60;;;;;12.01;50.35;100044.31;5076965;28;8950;-80
2022/12/03 09:17:57;;;;;;;;;19.80;19.80;;;;;12.02;50.18;100040.84;5089628;28;9619;-81
2022/12/03 09:20:26;;;;;;;;;21.60;20.60;;;;;11.93;50.37;100035.59;5073533;28;8950;-78
2022/12/03 09:22:54;;;;;;;;;20.40;19.40;;;;;11.97;50.84;100029.50;5115626;28;8948;-78
2022/12/03 09:25:23;;;;;;;;;20.00;19.20;;;;;11.78;50.51;100035.53;5094288;28;8855;-80
2022/12/03 09:27:53;;;;;;;;;21.20;19.00;;;;;11.72;51.52;100031.16;5073585;28;8887;-80
2022/12/03 09:30:22;;;;;;;;;19.20;17.20;;;;;11.95;50.27;100033.00;5052699;28;8935;-79
2022/12/03 09:32:50;;;;;;;;;21.20;20.40;;;;;11.97;50.55;100024.28;5064771;28;8940;-79
2022/12/03 09:35:19;;;;;;;;;25.20;22.00;;;;;12.00;50.75;100024.28;4998216;28;8858;-80
2022/12/03 09:37:48;;;;;;;;;25.60;23.80;;;;;12.09;50.80;100018.19;5026710;28;9021;-78
2022/12/03 09:40:17;;;;;;;;;18.40;16.20;;;;;11.93;51.03;100021.63;5022553;28;8860;-81
2022/12/03 09:42:46;;;;;;;;;20.80;18.40;;;;;11.87;50.91;100025.97;5001732;28;8860;-78
2022/12/03 09:45:16;;;;;;;;;19.80;19.00;;;;;12.04;50.18;100017.31;5065834;28;8872;-81
2022/12/03 09:47:47;;;;;;;;;23.00;18.40;;;;;11.90;51.07;100022.53;5064828;28;8915;-81
2022/12/03 09:50:20;;;;;;;;;21.20;19.00;;;;;12.07;50.36;100012.94;5009931;28;8828;-80
2022/12/03 09:52:49;;;;;;;;;25.80;23.00;;;;;12.15;50.12;100019.94;4993343;28;9020;-76
2022/12/03 09:55:22;;;;;;;;;19.40;19.20;;;;;12.32;50.50;100012.09;4992410;28;8853;-76
2022/12/03 09:57:52;;;;;;;;;20.60;18.40;;;;;12.24;50.00;100017.31;5041332;28;8880;-77
2022/12/03 10:00:25;;;;;;;;;19.40;16.20;;;;;12.26;49.63;100008.59;5008667;28;8890;-79
2022/12/03 10:02:57;;;;;;;;;19.40;17.60;;;;;12.19;49.86;100004.25;4993067;28;8852;-78
2022/12/03 10:05:26;;;;;;;;;22.00;15.40;;;;;12.12;50.21;100007.75;5059873;28;8846;-79
2022/12/03 10:08:03;;;;;;;;;20.80;18.80;;;;;12.21;50.07;99989.44;5046160;28;8890;-76
2022/12/03 10:10:34;;;;;;;;;21.00;19.80;;;;;12.26;50.13;99989.44;5042737;28;8878;-76
2022/12/03 10:13:03;;;;;;;;;16.60;16.40;;;;;12.09;50.66;99987.69;5058637;28;9003;-76
2022/12/03 10:15:33;;;;;;;;;16.80;11.80;;;;;12.12;50.84;99983.31;5065513;28;8954;-75
2022/12/03 10:18:15;;;;;;;;;16.00;16.00;;;;;12.15;50.26;99970.25;5055093;28;8976;-76
2022/12/03 10:20:45;;;;;;;;;18.60;16.20;;;;;12.06;50.68;99963.28;5075532;28;8824;-77
2022/12/03 10:23:20;;;;;;;;;18.20;15.80;;;;;11.85;51.12;99958.88;5055970;28;8854;-75
2022/12/03 10:25:54;;;;;;;;;16.60;15.80;;;;;12.04;51.24;99960.69;5076013;28;8855;-74
2022/12/03 10:28:32;;;;;;;;;16.80;15.40;;;;;12.14;50.37;99955.47;5065104;28;8854;-74
2022/12/03 10:31:05;;;;;;;;;19.00;18.40;;;;;12.35;49.96;99955.44;5028907;28;8863;-76
2022/12/03 10:33:36;;;;;;;;;19.00;18.60;;;;;12.26;50.35;99966.75;5078069;28;8894;-74
2022/12/03 10:36:18;;;;;;;;;19.60;15.80;;;;;12.31;50.62;99966.78;5108863;27;8919;-77
2022/12/03 10:38:46;;;;;;;;;23.00;18.40;;;;;12.24;50.77;99972.88;5066882;28;8884;-75
2022/12/03 10:41:22;;;;;;;;;21.00;19.00;;;;;12.61;49.95;99954.53;5070304;28;8827;-77
2022/12/03 10:43:50;;;;;;;;;20.40;18.20;;;;;12.79;49.27;99962.31;5067703;28;8866;-77
2022/12/03 10:46:22;;;;;;;;;21.60;19.80;;;;;12.93;48.65;99950.91;5069733;28;8808;-76
2022/12/03 10:49:09;;;;;;;;;14.60;14.60;;;;;13.17;48.13;99953.44;5082630;28;8850;-78
2022/12/03 10:51:39;;;;;;;;;22.20;20.00;;;;;13.18;48.18;99939.47;5084447;28;8894;-76
2022/12/03 10:54:17;;;;;;;;;22.00;17.40;;;;;13.13;48.48;99941.25;5082332;28;8908;-76
2022/12/03 10:56:47;;;;;;;;;21.00;20.00;;;;;13.13;48.34;99949.09;5080772;28;8894;-76
2022/12/03 10:59:19;;;;;;;;;25.00;23.40;;;;;13.15;48.60;99929.00;5082921;28;8884;-77
2022/12/03 11:01:50;;;;;;;;;19.60;16.00;;;;;13.11;48.78;99939.53;5081194;28;8876;-78
2022/12/03 11:04:22;;;;;;;;;18.40;17.40;;;;;12.98;49.14;99928.22;5030717;28;8858;-76
2022/12/03 11:06:51;;;;;;;;;20.60;19.80;;;;;13.28;48.18;99924.59;5082551;28;8869;-77
2022/12/03 11:09:25;;;;;;;;;20.60;19.20;;;;;13.27;48.18;99930.72;5080058;28;8854;-75
2022/12/03 11:11:54;;;;;;;;;18.80;17.60;;;;;13.17;48.68;99924.63;5091221;28;8855;-75
2022/12/03 11:15:05;;;;;;;;;18.00;15.40;;;;;13.26;48.41;99910.63;5087482;28;8874;-76
2022/12/03 11:17:48;;;;;;;;;20.60;19.00;;;;;13.43;48.20;99916.66;5035496;28;8883;-76
2022/12/03 11:20:54;;;;;;;;;23.60;21.40;;;;;13.30;48.33;99909.75;5082133;28;8867;-75
2022/12/03 11:23:55;;;;;;;;;19.00;18.20;;;;;13.35;48.35;99921.09;5084983;28;8846;-75
2022/12/03 11:27:07;;;;;;;;;23.20;22.00;;;;;13.45;48.24;99906.19;5027308;28;8888;-75
2022/12/03 11:29:58;;;;;;;;;20.40;19.00;;;;;13.43;47.92;99915.81;4964103;28;8890;-76
2022/12/03 11:33:06;;;;;;;;;19.00;16.20;;;;;13.60;47.74;99919.19;4853576;29;8943;-76
2022/12/03 11:35:52;;;;;;;;;27.20;22.40;;;;;13.38;47.78;99909.72;4854398;29;8896;-76
2022/12/03 11:38:49;;;;;;;;;23.80;21.00;;;;;13.45;47.88;99906.19;4808205;29;8884;-76
2022/12/03 11:41:27;;;;;;;;;28.80;22.80;;;;;13.22;48.70;99904.53;4854668;29;8918;-78
2022/12/03 11:44:30;;;;;;;;;18.60;16.60;;;;;13.47;47.85;99899.19;4852734;29;9647;-77
2022/12/03 11:47:07;;;;;;;;;23.20;22.40;;;;;13.29;48.48;99894.91;4867944;29;10229;-77
2022/12/03 11:49:39;;;;;;;;;21.60;16.60;;;;;13.47;47.98;99895.69;4872609;29;8888;-77
2022/12/03 11:52:39;;;;;;;;;23.80;19.40;;;;;13.77;47.63;99889.38;4842073;29;8860;-80
2022/12/03 11:55:17;;;;;;;;;22.80;21.40;;;;;13.51;48.58;99898.28;4816797;29;9015;-78
2022/12/03 11:57:46;;;;;;;;;19.40;18.00;;;;;13.37;48.74;99884.41;4817399;29;8904;-77
2022/12/03 12:00:21;;;;;;;;;22.00;18.40;;;;;13.39;48.94;99893.13;4802521;29;8916;-78
2022/12/03 12:02:53;;;;;;;;;19.40;17.60;;;;;13.54;48.58;99882.53;4811974;29;8916;-81
2022/12/03 12:05:31;;;;;;;;;22.80;18.80;;;;;13.62;48.48;99883.34;4895067;28;8931;-77